Aviation Digital Data Service (ADDS)

Output produced by TAFs form (0453 UTC 30 March 2017)
found at http://www.aviationweather.gov/adds/tafs/
 
METAR text: RJFY 300120Z 23006KT 5000 BR FEW005 SCT015 BKN025 17/15 Q1020 RMK 2ST005 3CU015 7CU025 A3014
Conditions at: RJFY (KANOYA (JMSDF) , JP) observed 0120 UTC 30 March 2017
Temperature: 17.0°C (63°F)
Dewpoint: 15.0°C (59°F) [RH = 88%]
Pressure (altimeter): 30.12 inches Hg (1020.0 mb)
Winds: from the SW (230 degrees) at 7 MPH (6 knots; 3.1 m/s)
Visibility: 3 miles (5 km)
Ceiling: 2500 feet AGL
Clouds: few clouds at 500 feet AGL
scattered clouds at 1500 feet AGL
broken clouds at 2500 feet AGL
Weather: BR  (mist)